Time;durP1;ratioP1;P1;durP2;ratioP2;P2;SDS_P1;SDS_P2;PMS_P1;PMS_P2;Temp;Humidity;BMP_temperature;BMP_pressure;BME280_temperature;BME280_humidity;BME280_pressure;Samples;Min_cycle;Max_cycle;Signal;HPM_P1;HPM_P2
2022/06/12 00:00:40;;;;;;;0.50;0.50;;;20.40;99.90;;;;;;4991289;28;20195;-82
2022/06/12 00:03:08;;;;;;;0.90;0.53;;;20.40;99.90;;;;;;4973665;28;20188;-82
2022/06/12 00:05:36;;;;;;;0.90;0.40;;;20.30;99.90;;;;;;4990882;28;20269;-82
2022/06/12 00:08:03;;;;;;;0.50;0.50;;;20.20;99.90;;;;;;4991793;28;20263;-82
2022/06/12 00:10:29;;;;;;;0.50;0.50;;;20.20;99.90;;;;;;4991529;28;20192;-82
2022/06/12 00:12:55;;;;;;;0.30;0.30;;;20.10;99.90;;;;;;4993107;28;20380;-83
2022/06/12 00:15:25;;;;;;;2.27;0.57;;;20.20;99.90;;;;;;4993431;28;20218;-82
2022/06/12 00:17:52;;;;;;;0.30;0.30;;;20.20;99.90;;;;;;4990442;28;20184;-83
2022/06/12 00:20:18;;;;;;;0.63;0.63;;;20.30;99.90;;;;;;4973315;28;20268;-83
2022/06/12 00:22:48;;;;;;;0.20;0.20;;;20.30;99.90;;;;;;4992360;28;20264;-83
2022/06/12 00:25:15;;;;;;;0.73;0.73;;;20.30;99.90;;;;;;4992807;28;20215;-82
2022/06/12 00:27:42;;;;;;;0.20;0.20;;;20.30;99.90;;;;;;4975515;28;20187;-82
2022/06/12 00:30:11;;;;;;;0.23;0.23;;;20.30;99.90;;;;;;4992346;28;20195;-83
2022/06/12 00:32:37;;;;;;;0.30;0.30;;;20.30;99.90;;;;;;4972209;28;20184;-83
2022/06/12 00:35:03;;;;;;;0.47;0.47;;;20.30;99.90;;;;;;4972673;28;20676;-83
2022/06/12 00:37:29;;;;;;;1.07;0.60;;;20.30;99.90;;;;;;4991942;28;20184;-82
2022/06/12 00:39:56;;;;;;;0.63;0.53;;;20.20;99.90;;;;;;4973384;28;20187;-82
2022/06/12 00:42:23;;;;;;;0.50;0.40;;;20.20;99.90;;;;;;4974649;28;20202;-83
2022/06/12 00:44:50;;;;;;;0.27;0.27;;;20.20;99.90;;;;;;4973864;28;20299;-83
2022/06/12 00:47:16;;;;;;;0.60;0.60;;;20.20;99.90;;;;;;4992210;28;20194;-82
2022/06/12 00:49:57;;;;;;;0.30;0.30;;;20.10;99.90;;;;;;4973344;28;20200;-82
2022/06/12 00:52:25;;;;;;;0.40;0.40;;;20.00;99.90;;;;;;4990897;28;20195;-81
2022/06/12 00:55:04;;;;;;;0.30;0.30;;;20.10;99.90;;;;;;4971381;28;20990;-83
2022/06/12 00:57:30;;;;;;;0.30;0.30;;;20.10;99.90;;;;;;4990601;28;20184;-83
2022/06/12 00:59:59;;;;;;;0.73;0.60;;;20.10;99.90;;;;;;4990912;28;20219;-82
2022/06/12 01:02:31;;;;;;;0.20;0.20;;;20.10;99.90;;;;;;4988617;28;20244;-82
2022/06/12 01:07:46;;;;;;;0.53;0.53;;;20.00;99.90;;;;;;4991162;28;20237;-82
2022/06/12 01:10:15;;;;;;;0.50;0.30;;;20.00;99.90;;;;;;4972228;28;20203;-83
2022/06/12 01:12:49;;;;;;;0.33;0.33;;;19.90;99.90;;;;;;4989252;28;20647;-83
2022/06/12 01:15:34;;;;;;;0.80;0.60;;;19.90;99.90;;;;;;4988241;28;20239;-82
2022/06/12 01:18:00;;;;;;;0.20;0.20;;;19.90;99.90;;;;;;4970273;28;20573;-82
2022/06/12 01:20:31;;;;;;;0.30;0.30;;;19.90;99.90;;;;;;4971215;28;20184;-82
2022/06/12 01:23:12;;;;;;;1.10;0.37;;;19.90;99.90;;;;;;4987789;28;20188;-83
2022/06/12 01:25:40;;;;;;;0.30;0.30;;;19.90;99.90;;;;;;4989135;28;20246;-83
2022/06/12 01:28:45;;;;;;;0.40;0.40;;;19.80;99.90;;;;;;4989217;28;20187;-83
2022/06/12 01:31:47;;;;;;;1.43;0.60;;;19.80;99.90;;;;;;4970560;28;20187;-82
2022/06/12 01:34:21;;;;;;;1.80;0.50;;;19.90;99.90;;;;;;4987585;28;20202;-83
2022/06/12 01:37:16;;;;;;;0.50;0.50;;;19.80;99.90;;;;;;4969544;28;20692;-83
2022/06/12 01:39:45;;;;;;;4.03;0.30;;;19.70;99.90;;;;;;4970297;28;20183;-83
2022/06/12 01:42:33;;;;;;;0.53;0.53;;;19.70;99.90;;;;;;4970242;28;20184;-83
2022/06/12 01:45:11;;;;;;;0.70;0.70;;;19.70;99.90;;;;;;4968871;28;20683;-83
2022/06/12 01:47:47;;;;;;;0.20;0.20;;;19.60;99.90;;;;;;4969950;28;20184;-82
2022/06/12 01:50:19;;;;;;;0.30;0.30;;;19.60;99.90;;;;;;4988137;28;20191;-82
2022/06/12 01:52:45;;;;;;;0.37;0.37;;;19.60;99.90;;;;;;4987593;28;20191;-83
2022/06/12 01:55:19;;;;;;;0.50;0.23;;;19.60;99.90;;;;;;4969561;28;20203;-83
2022/06/12 01:57:54;;;;;;;0.20;0.20;;;19.60;99.90;;;;;;4987719;28;20193;-82
2022/06/12 02:00:22;;;;;;;0.20;0.20;;;19.50;99.90;;;;;;4988808;28;20175;-83
2022/06/12 02:03:06;;;;;;;0.30;0.30;;;19.40;99.90;;;;;;4969786;28;20194;-84
2022/06/12 02:05:36;;;;;;;0.20;0.20;;;19.40;99.90;;;;;;4969408;28;20270;-83
2022/06/12 02:08:20;;;;;;;0.17;0.17;;;19.30;99.90;;;;;;4987810;28;20232;-83
2022/06/12 02:10:54;;;;;;;0.50;0.50;;;19.30;99.90;;;;;;4969412;28;21135;-83
2022/06/12 02:13:25;;;;;;;0.30;0.30;;;19.30;99.90;;;;;;4987527;28;20252;-82
2022/06/12 02:16:19;;;;;;;0.30;0.30;;;19.30;99.90;;;;;;4987152;28;20222;-83
2022/06/12 02:18:52;;;;;;;0.30;0.30;;;19.30;99.90;;;;;;4961221;28;20195;-83
2022/06/12 02:21:42;;;;;;;0.20;0.20;;;19.30;99.90;;;;;;4969388;28;20862;-82
2022/06/12 02:24:17;;;;;;;0.40;0.40;;;19.40;99.90;;;;;;4985846;28;20191;-84
2022/06/12 02:27:02;;;;;;;0.40;0.40;;;19.40;99.90;;;;;;4968773;28;20628;-83
2022/06/12 02:29:39;;;;;;;0.20;0.20;;;19.40;99.90;;;;;;4968310;28;20597;-82
2022/06/12 02:32:28;;;;;;;0.30;0.30;;;19.40;99.90;;;;;;4987107;28;20171;-84
2022/06/12 02:34:59;;;;;;;1.47;0.60;;;19.30;99.90;;;;;;4975126;28;20290;-82
2022/06/12 02:37:29;;;;;;;0.13;0.13;;;19.30;99.90;;;;;;4987746;28;20201;-83
2022/06/12 02:40:04;;;;;;;0.30;0.30;;;19.30;99.90;;;;;;4968164;28;20186;-84
2022/06/12 02:42:38;;;;;;;0.40;0.40;;;19.30;99.90;;;;;;4987489;28;20624;-84
2022/06/12 02:45:09;;;;;;;0.73;0.30;;;19.30;99.90;;;;;;4967045;28;20211;-83
2022/06/12 02:47:37;;;;;;;0.20;0.20;;;19.30;99.90;;;;;;4968931;28;20545;-83
2022/06/12 02:50:04;;;;;;;0.60;0.43;;;19.30;99.90;;;;;;4986163;28;20387;-83
2022/06/12 02:52:39;;;;;;;0.93;0.37;;;19.20;99.90;;;;;;4968080;28;20213;-84
2022/06/12 02:55:27;;;;;;;0.30;0.30;;;19.20;99.90;;;;;;4967091;28;20707;-83
2022/06/12 02:58:00;;;;;;;0.27;0.20;;;19.20;99.90;;;;;;4988874;28;20186;-84
2022/06/12 03:01:00;;;;;;;0.40;0.40;;;19.20;99.90;;;;;;4972849;28;20296;-82
2022/06/12 03:03:48;;;;;;;0.40;0.40;;;19.20;99.90;;;;;;4990425;28;20278;-83
2022/06/12 03:06:14;;;;;;;0.30;0.30;;;19.20;99.90;;;;;;4972132;28;20275;-83
2022/06/12 03:08:46;;;;;;;0.20;0.20;;;19.20;99.90;;;;;;4971730;28;20203;-84
2022/06/12 03:11:28;;;;;;;0.10;0.10;;;19.10;99.90;;;;;;4990246;28;20752;-83
2022/06/12 03:13:56;;;;;;;0.20;0.20;;;19.20;99.90;;;;;;4970905;28;20322;-82
2022/06/12 03:16:34;;;;;;;1.20;0.73;;;19.20;99.90;;;;;;4971415;28;21123;-84
2022/06/12 03:19:09;;;;;;;0.40;0.40;;;19.10;99.90;;;;;;4989745;28;20182;-83
2022/06/12 03:21:57;;;;;;;0.30;0.30;;;19.10;99.90;;;;;;4990396;28;20176;-83
2022/06/12 03:24:53;;;;;;;0.30;0.30;;;19.00;99.90;;;;;;4971311;28;20215;-83
2022/06/12 03:27:45;;;;;;;0.20;0.20;;;19.10;99.90;;;;;;4987398;28;20601;-83
2022/06/12 03:30:22;;;;;;;0.20;0.20;;;19.10;99.90;;;;;;4971472;28;20184;-83
2022/06/12 03:33:05;;;;;;;0.10;0.10;;;19.00;99.90;;;;;;4972143;28;20215;-83
2022/06/12 03:36:04;;;;;;;0.20;0.20;;;19.10;99.90;;;;;;4988128;28;20791;-84
2022/06/12 03:38:42;;;;;;;0.20;0.20;;;19.50;99.90;;;;;;4988045;28;20263;-83
2022/06/12 03:41:29;;;;;;;0.20;0.20;;;20.60;99.90;;;;;;4989209;28;20180;-84
2022/06/12 03:44:03;;;;;;;0.40;0.40;;;21.40;99.90;;;;;;4988628;28;20218;-83
2022/06/12 03:46:44;;;;;;;0.77;0.37;;;22.00;99.90;;;;;;4972149;28;20187;-82
2022/06/12 03:49:13;;;;;;;0.20;0.20;;;22.80;99.90;;;;;;4971313;28;20669;-83
2022/06/12 03:51:46;;;;;;;0.20;0.20;;;22.90;99.90;;;;;;4971606;28;20176;-84
2022/06/12 03:54:41;;;;;;;0.30;0.30;;;23.40;99.90;;;;;;4970799;28;20180;-84
2022/06/12 04:00:16;;;;;;;0.40;0.40;;;23.60;99.90;;;;;;4989346;28;20195;-83
2022/06/12 04:02:45;;;;;;;0.40;0.40;;;24.50;99.90;;;;;;4971521;28;20179;-84
2022/06/12 04:05:24;;;;;;;1.33;0.37;;;25.30;99.90;;;;;;4988954;28;20249;-83
2022/06/12 04:07:53;;;;;;;2.20;0.40;;;25.70;99.90;;;;;;4988819;28;20205;-84
2022/06/12 04:10:22;;;;;;;0.50;0.50;;;25.90;99.90;;;;;;4970304;28;20184;-83
2022/06/12 04:12:49;;;;;;;0.50;0.50;;;26.40;99.90;;;;;;4989403;28;20187;-84
2022/06/12 04:15:24;;;;;;;0.23;0.23;;;26.70;99.90;;;;;;4970511;28;20211;-83
2022/06/12 04:17:51;;;;;;;0.67;0.53;;;27.00;99.90;;;;;;4988677;28;20189;-83
2022/06/12 04:20:22;;;;;;;0.33;0.30;;;27.00;99.90;;;;;;4971013;28;20210;-83
2022/06/12 04:22:57;;;;;;;0.30;0.30;;;27.10;99.90;;;;;;4988901;28;20191;-83
2022/06/12 04:25:48;;;;;;;1.00;0.50;;;26.20;99.90;;;;;;4986988;28;20205;-84
2022/06/12 04:28:37;;;;;;;0.40;0.30;;;24.70;99.90;;;;;;4989031;28;20175;-83
2022/06/12 04:31:06;;;;;;;0.70;0.70;;;24.40;99.90;;;;;;4987889;28;20221;-83
2022/06/12 04:33:55;;;;;;;0.40;0.40;;;23.60;99.90;;;;;;4969484;28;20265;-83
2022/06/12 04:36:21;;;;;;;0.30;0.30;;;23.50;99.90;;;;;;4987563;28;20212;-84
2022/06/12 04:38:48;;;;;;;0.70;0.70;;;23.10;99.90;;;;;;4986428;28;21084;-84
2022/06/12 04:41:23;;;;;;;0.23;0.23;;;22.50;99.90;;;;;;4988484;28;20172;-84
2022/06/12 04:43:48;;;;;;;0.30;0.30;;;22.50;99.90;;;;;;4969531;28;20195;-84
2022/06/12 04:46:14;;;;;;;1.17;0.50;;;22.30;99.90;;;;;;4970615;28;20207;-83
2022/06/12 04:48:43;;;;;;;0.40;0.40;;;21.90;99.90;;;;;;4985911;28;20225;-83
2022/06/12 04:51:10;;;;;;;0.30;0.30;;;21.70;99.90;;;;;;4970407;28;20180;-83
2022/06/12 04:53:37;;;;;;;0.50;0.50;;;21.40;99.90;;;;;;4969698;28;20272;-83
2022/06/12 04:56:03;;;;;;;0.30;0.30;;;21.10;99.90;;;;;;4987887;28;20235;-83
2022/06/12 04:58:29;;;;;;;1.03;0.50;;;21.20;99.90;;;;;;4970181;28;20314;-83
2022/06/12 05:00:55;;;;;;;0.63;0.40;;;21.40;99.90;;;;;;4969127;28;20271;-83
2022/06/12 05:03:21;;;;;;;0.47;0.47;;;21.40;99.90;;;;;;4969333;28;20176;-82
2022/06/12 05:05:47;;;;;;;0.30;0.30;;;21.30;99.90;;;;;;4969367;28;20227;-84
2022/06/12 05:08:14;;;;;;;0.60;0.60;;;21.40;99.90;;;;;;4988604;28;20187;-82
2022/06/12 05:10:39;;;;;;;0.40;0.40;;;21.10;99.90;;;;;;4986713;28;20179;-83
2022/06/12 05:13:06;;;;;;;1.37;0.60;;;21.20;99.90;;;;;;4969376;28;20190;-83
2022/06/12 05:15:31;;;;;;;0.40;0.40;;;21.10;99.90;;;;;;4987177;28;20211;-83
2022/06/12 05:17:57;;;;;;;1.13;0.57;;;21.20;99.90;;;;;;4969546;28;20688;-82
2022/06/12 05:20:27;;;;;;;0.37;0.37;;;21.20;99.90;;;;;;4985608;28;20605;-81
2022/06/12 05:22:53;;;;;;;0.50;0.50;;;21.30;99.90;;;;;;4986559;28;20653;-82
2022/06/12 05:25:19;;;;;;;1.70;0.67;;;21.30;99.90;;;;;;4967696;28;20208;-83
2022/06/12 05:27:46;;;;;;;0.50;0.50;;;21.40;99.90;;;;;;4990783;28;20326;-84
2022/06/12 05:30:15;;;;;;;0.40;0.40;;;21.40;99.90;;;;;;4968492;28;20199;-82
2022/06/12 05:32:41;;;;;;;0.83;0.83;;;21.40;99.90;;;;;;4969465;28;20192;-83
2022/06/12 05:35:07;;;;;;;0.53;0.53;;;21.40;99.90;;;;;;4968614;28;20223;-84
2022/06/12 05:37:36;;;;;;;0.50;0.50;;;21.30;99.90;;;;;;4985583;28;20187;-82
2022/06/12 05:40:03;;;;;;;0.73;0.70;;;21.30;99.90;;;;;;4984627;28;20630;-82
2022/06/12 05:42:29;;;;;;;0.30;0.30;;;21.40;99.90;;;;;;4986136;28;20841;-82
2022/06/12 05:44:54;;;;;;;0.60;0.50;;;21.50;99.90;;;;;;4985346;28;20208;-83
2022/06/12 05:47:20;;;;;;;0.47;0.47;;;21.60;99.90;;;;;;4970060;28;20186;-83
2022/06/12 05:49:45;;;;;;;0.30;0.30;;;21.70;99.90;;;;;;4968360;28;20193;-83
2022/06/12 05:52:11;;;;;;;0.30;0.30;;;21.70;99.90;;;;;;4968258;28;20191;-83
2022/06/12 05:54:37;;;;;;;0.37;0.37;;;21.80;99.90;;;;;;4986942;28;20233;-83
2022/06/12 05:57:03;;;;;;;0.30;0.30;;;21.80;99.90;;;;;;4970022;28;20270;-83
2022/06/12 05:59:29;;;;;;;0.30;0.30;;;21.90;99.90;;;;;;4970133;28;20218;-84
2022/06/12 06:01:54;;;;;;;0.87;0.47;;;21.90;99.90;;;;;;4969184;28;20200;-83
2022/06/12 06:04:20;;;;;;;0.60;0.60;;;21.90;99.90;;;;;;4987392;28;20202;-83
2022/06/12 06:06:51;;;;;;;1.27;0.47;;;22.10;99.90;;;;;;4968373;28;20576;-83
2022/06/12 06:09:17;;;;;;;1.20;0.40;;;22.10;99.90;;;;;;4969703;28;20672;-83
2022/06/12 06:11:44;;;;;;;0.30;0.30;;;22.20;99.90;;;;;;4986248;28;20198;-83
2022/06/12 06:14:10;;;;;;;0.47;0.47;;;22.20;99.90;;;;;;4985923;28;20246;-83
2022/06/12 06:16:37;;;;;;;0.33;0.33;;;22.40;99.90;;;;;;4986470;28;20195;-84
2022/06/12 06:19:03;;;;;;;0.27;0.27;;;22.60;99.90;;;;;;4985646;28;20187;-84
2022/06/12 06:21:29;;;;;;;0.37;0.30;;;22.70;99.90;;;;;;4969219;28;20250;-83
2022/06/12 06:23:55;;;;;;;1.00;0.90;;;22.70;99.90;;;;;;4986579;28;20203;-83
2022/06/12 06:26:21;;;;;;;0.70;0.57;;;22.70;99.90;;;;;;4969119;28;20218;-82
2022/06/12 06:28:50;;;;;;;0.30;0.30;;;22.80;99.90;;;;;;4969210;28;20188;-83
2022/06/12 06:31:15;;;;;;;0.30;0.30;;;22.90;99.90;;;;;;4969042;28;20522;-84
2022/06/12 06:33:41;;;;;;;0.47;0.47;;;23.00;99.90;;;;;;4968936;28;20218;-83
2022/06/12 06:36:08;;;;;;;0.40;0.40;;;23.10;99.90;;;;;;4969844;28;20573;-84
2022/06/12 06:38:34;;;;;;;0.30;0.30;;;23.10;99.90;;;;;;4986818;28;20179;-83
2022/06/12 06:40:59;;;;;;;0.77;0.30;;;23.20;99.90;;;;;;4967440;28;20230;-83
2022/06/12 06:43:25;;;;;;;0.50;0.30;;;23.20;99.90;;;;;;4984503;28;20262;-83
2022/06/12 06:48:34;;;;;;;1.63;0.30;;;23.10;99.90;;;;;;4986721;28;20195;-84
2022/06/12 06:51:00;;;;;;;0.10;0.10;;;23.10;99.90;;;;;;4985796;28;21059;-84
2022/06/12 06:53:26;;;;;;;1.83;0.47;;;23.20;99.90;;;;;;4968011;28;20582;-83
2022/06/12 06:55:51;;;;;;;0.47;0.47;;;22.80;99.90;;;;;;4983421;28;20302;-83
2022/06/12 06:58:21;;;;;;;0.20;0.20;;;23.10;99.90;;;;;;4986083;28;20184;-83
2022/06/12 07:00:48;;;;;;;2.67;0.80;;;22.90;99.90;;;;;;4986108;28;20266;-85
2022/06/12 07:03:15;;;;;;;0.40;0.40;;;23.10;99.90;;;;;;4985358;28;20207;-84
2022/06/12 07:05:42;;;;;;;0.60;0.60;;;23.10;99.90;;;;;;4967182;28;20233;-85
2022/06/12 07:08:08;;;;;;;0.20;0.20;;;23.10;99.90;;;;;;4986006;28;20250;-84
2022/06/12 07:10:35;;;;;;;1.17;0.23;;;23.20;99.90;;;;;;4985819;28;20196;-84
2022/06/12 07:13:02;;;;;;;0.97;0.50;;;23.30;99.90;;;;;;4966697;28;20188;-83
2022/06/12 07:15:29;;;;;;;0.37;0.33;;;23.30;99.90;;;;;;4968251;28;20211;-84
2022/06/12 07:17:56;;;;;;;0.67;0.47;;;23.40;99.90;;;;;;4967890;28;20184;-83
2022/06/12 07:20:24;;;;;;;0.53;0.40;;;23.60;99.90;;;;;;4968262;28;20271;-84
2022/06/12 07:22:50;;;;;;;0.20;0.20;;;23.80;99.90;;;;;;4967570;28;20194;-83
2022/06/12 07:25:16;;;;;;;0.30;0.30;;;23.70;99.90;;;;;;4986148;28;20214;-84
2022/06/12 07:27:44;;;;;;;0.40;0.40;;;23.50;99.90;;;;;;4968790;28;20263;-84
2022/06/12 07:30:12;;;;;;;0.50;0.50;;;23.60;99.90;;;;;;4967330;28;20708;-83
2022/06/12 07:32:38;;;;;;;0.20;0.20;;;24.10;99.90;;;;;;4968818;28;20222;-83
2022/06/12 07:35:05;;;;;;;0.50;0.50;;;24.30;99.90;;;;;;4968219;28;20212;-83
2022/06/12 07:37:32;;;;;;;0.67;0.67;;;24.50;99.90;;;;;;4988075;28;20176;-83
2022/06/12 07:39:58;;;;;;;0.30;0.30;;;24.60;99.90;;;;;;4986492;28;20192;-83
2022/06/12 07:42:24;;;;;;;0.40;0.37;;;24.90;99.90;;;;;;4990999;28;20266;-84
2022/06/12 07:44:49;;;;;;;0.93;0.40;;;25.00;99.90;;;;;;4993436;28;20291;-83
2022/06/12 07:47:15;;;;;;;1.30;0.60;;;24.80;99.90;;;;;;4991576;28;20604;-84
2022/06/12 07:49:40;;;;;;;0.53;0.40;;;24.30;99.90;;;;;;4992085;28;20190;-83
2022/06/12 07:52:08;;;;;;;0.20;0.20;;;24.20;99.90;;;;;;4973722;28;20183;-83
2022/06/12 07:54:36;;;;;;;0.50;0.50;;;24.70;99.90;;;;;;4990194;28;20218;-83
2022/06/12 07:57:01;;;;;;;0.30;0.30;;;25.10;99.90;;;;;;4991024;28;20176;-83
2022/06/12 07:59:27;;;;;;;0.30;0.30;;;25.30;99.90;;;;;;4990281;28;20183;-84
2022/06/12 08:01:53;;;;;;;0.57;0.57;;;25.60;99.90;;;;;;4990898;28;20263;-83
2022/06/12 08:04:20;;;;;;;0.50;0.50;;;25.80;99.90;;;;;;4971875;28;20184;-83
2022/06/12 08:06:46;;;;;;;0.30;0.30;;;25.90;99.90;;;;;;4990235;28;20208;-84
2022/06/12 08:09:12;;;;;;;0.40;0.40;;;26.10;99.90;;;;;;4972590;28;20190;-83
2022/06/12 08:11:41;;;;;;;0.73;0.70;;;26.10;99.90;;;;;;4989046;28;20660;-83
2022/06/12 08:14:07;;;;;;;0.37;0.37;;;26.50;99.90;;;;;;4971307;28;20190;-83
2022/06/12 08:16:34;;;;;;;0.30;0.30;;;26.80;99.90;;;;;;4986368;28;20180;-83
2022/06/12 08:19:00;;;;;;;0.30;0.30;;;27.20;99.90;;;;;;4988520;28;20191;-82
2022/06/12 08:21:26;;;;;;;0.20;0.20;;;27.60;99.90;;;;;;4963245;28;20189;-82
2022/06/12 08:23:58;;;;;;;0.40;0.40;;;27.80;99.90;;;;;;4965754;28;20602;-82
2022/06/12 08:26:31;;;;;;;0.83;0.40;;;27.20;99.90;;;;;;4970978;28;20719;-82
2022/06/12 08:29:04;;;;;;;0.25;0.25;;;27.20;99.90;;;;;;4985060;28;20184;-82
2022/06/12 08:31:49;;;;;;;0.68;0.40;;;27.30;99.90;;;;;;4968849;28;20275;-81
2022/06/12 08:34:25;;;;;;;0.43;0.40;;;27.60;99.90;;;;;;4971901;28;20244;-83
2022/06/12 08:36:57;;;;;;;0.30;0.30;;;27.20;99.90;;;;;;4972820;28;20199;-83
2022/06/12 08:39:24;;;;;;;0.67;0.50;;;27.50;99.90;;;;;;4972218;28;20242;-83
2022/06/12 08:42:24;;;;;;;0.37;0.30;;;27.70;99.90;;;;;;4987338;28;20611;-83
2022/06/12 08:45:09;;;;;;;0.30;0.30;;;27.30;99.90;;;;;;4972724;28;20235;-83
2022/06/12 08:47:52;;;;;;;0.60;0.47;;;27.00;99.90;;;;;;4969981;28;20279;-83
2022/06/12 08:50:33;;;;;;;0.40;0.40;;;27.30;99.90;;;;;;4989670;28;20186;-84
2022/06/12 08:53:24;;;;;;;0.33;0.33;;;27.40;99.90;;;;;;4985703;28;20180;-83
2022/06/12 08:56:05;;;;;;;0.87;0.53;;;27.30;99.90;;;;;;4988701;28;20211;-83
2022/06/12 08:58:49;;;;;;;0.27;0.27;;;27.50;99.90;;;;;;4971254;28;20180;-83
2022/06/12 09:01:15;;;;;;;0.98;0.75;;;27.80;99.90;;;;;;4972599;28;20183;-83
2022/06/12 09:03:49;;;;;;;0.55;0.45;;;27.80;99.90;;;;;;4990182;28;20184;-83
2022/06/12 09:06:37;;;;;;;0.30;0.30;;;28.20;99.90;;;;;;4972418;28;20227;-83
2022/06/12 09:09:31;;;;;;;0.40;0.40;;;28.50;99.90;;;;;;4990485;28;20207;-82
2022/06/12 09:12:12;;;;;;;0.63;0.63;;;28.80;99.90;;;;;;4988542;28;20231;-83
2022/06/12 09:15:03;;;;;;;0.45;0.45;;;28.80;99.90;;;;;;4989416;28;20282;-84
2022/06/12 09:17:39;;;;;;;1.33;0.63;;;28.70;99.90;;;;;;4971008;28;20196;-83
2022/06/12 09:20:46;;;;;;;1.17;0.60;;;28.10;99.90;;;;;;4988655;28;20171;-83
2022/06/12 09:23:58;;;;;;;1.08;0.98;;;27.70;99.90;;;;;;4947416;28;20202;-83
2022/06/12 09:26:48;;;;;;;0.40;0.40;;;27.40;99.90;;;;;;4892388;29;20225;-82
2022/06/12 09:29:32;;;;;;;0.95;0.40;;;27.50;99.90;;;;;;4966548;28;20196;-82
2022/06/12 09:32:29;;;;;;;0.57;0.57;;;27.70;99.90;;;;;;4988224;28;20230;-83
2022/06/12 09:35:21;;;;;;;0.35;0.35;;;27.90;99.90;;;;;;4985787;28;20223;-82
2022/06/12 09:38:24;;;;;;;0.63;0.50;;;28.10;99.90;;;;;;4989076;28;20187;-83
2022/06/12 09:40:58;;;;;;;0.37;0.37;;;28.40;99.90;;;;;;4984749;28;20197;-83
2022/06/12 09:43:36;;;;;;;0.28;0.28;;;28.20;99.90;;;;;;4986474;28;20274;-83
2022/06/12 09:46:26;;;;;;;1.00;0.47;;;28.40;99.90;;;;;;4988283;28;20210;-83
2022/06/12 09:49:28;;;;;;;0.70;0.40;;;28.20;99.90;;;;;;4978108;28;20202;-85
2022/06/12 09:52:31;;;;;;;4.75;0.55;;;28.40;99.90;;;;;;4960529;28;20679;-83
2022/06/12 09:55:02;;;;;;;0.52;0.52;;;27.80;99.90;;;;;;4947691;28;20245;-83
2022/06/12 09:57:47;;;;;;;0.55;0.50;;;28.00;99.90;;;;;;4989028;28;20270;-83
2022/06/12 10:00:31;;;;;;;0.47;0.47;;;28.00;99.90;;;;;;4971291;28;20180;-83
2022/06/12 10:03:12;;;;;;;0.60;0.60;;;27.70;99.90;;;;;;4986794;28;20190;-84
2022/06/12 10:05:43;;;;;;;0.40;0.32;;;27.80;99.90;;;;;;4970822;28;20400;-82
2022/06/12 10:08:21;;;;;;;0.63;0.30;;;28.30;99.90;;;;;;4990323;28;20196;-83
2022/06/12 10:11:19;;;;;;;0.32;0.32;;;28.60;99.90;;;;;;4972723;28;20529;-84
2022/06/12 10:13:49;;;;;;;0.40;0.40;;;28.90;99.90;;;;;;4989336;28;20267;-83
2022/06/12 10:16:23;;;;;;;0.30;0.30;;;29.00;99.90;;;;;;4970235;28;20211;-83
2022/06/12 10:19:14;;;;;;;0.45;0.43;;;28.70;99.90;;;;;;4986147;28;20191;-82
2022/06/12 10:21:44;;;;;;;0.60;0.60;;;28.80;99.90;;;;;;4985554;28;20180;-82
2022/06/12 10:24:11;;;;;;;0.50;0.50;;;28.80;99.90;;;;;;4988097;28;20214;-83
2022/06/12 10:26:36;;;;;;;0.20;0.20;;;28.30;99.90;;;;;;4988079;28;20187;-84
2022/06/12 10:29:05;;;;;;;0.63;0.60;;;27.80;99.90;;;;;;4988767;28;20727;-83
2022/06/12 10:31:34;;;;;;;0.50;0.50;;;28.10;99.90;;;;;;4971776;28;20286;-83
2022/06/12 10:34:18;;;;;;;0.30;0.30;;;28.60;99.90;;;;;;4988334;28;20184;-83
2022/06/12 10:36:44;;;;;;;0.50;0.50;;;29.10;99.90;;;;;;4987514;28;20199;-84
2022/06/12 10:39:16;;;;;;;0.30;0.30;;;29.10;99.90;;;;;;4987433;28;20176;-83
2022/06/12 10:42:02;;;;;;;0.50;0.47;;;28.80;99.90;;;;;;4988343;28;20518;-83
2022/06/12 10:44:44;;;;;;;0.30;0.30;;;28.90;99.90;;;;;;4988967;28;20254;-82
2022/06/12 10:47:24;;;;;;;0.50;0.50;;;28.70;99.90;;;;;;4969522;28;20280;-83
2022/06/12 10:50:01;;;;;;;0.22;0.22;;;29.00;99.90;;;;;;4988136;28;20691;-83
2022/06/12 10:52:26;;;;;;;0.73;0.50;;;29.20;99.90;;;;;;4987067;28;20253;-83
2022/06/12 10:54:52;;;;;;;0.70;0.43;;;29.30;99.90;;;;;;4969456;28;20216;-83
2022/06/12 10:57:20;;;;;;;0.73;0.73;;;29.50;99.90;;;;;;4971183;28;20184;-82
2022/06/12 10:59:54;;;;;;;0.60;0.60;;;29.40;99.90;;;;;;4972201;28;20609;-83
2022/06/12 11:02:46;;;;;;;0.57;0.32;;;29.70;99.90;;;;;;4989339;28;22398;-83
2022/06/12 11:05:28;;;;;;;0.52;0.47;;;29.90;99.90;;;;;;4970480;28;20212;-83
2022/06/12 11:08:02;;;;;;;0.45;0.45;;;29.60;99.90;;;;;;4969614;28;20199;-83
2022/06/12 11:10:38;;;;;;;1.65;0.57;;;29.20;99.90;;;;;;4967282;28;20179;-83
2022/06/12 11:13:49;;;;;;;0.30;0.30;;;29.10;99.90;;;;;;4969045;28;20624;-82
2022/06/12 11:16:34;;;;;;;0.55;0.55;;;29.40;99.90;;;;;;4967326;28;20318;-81
2022/06/12 11:19:37;;;;;;;1.85;0.80;;;29.80;99.90;;;;;;4972537;28;20184;-83
2022/06/12 11:22:20;;;;;;;0.52;0.52;;;29.90;99.90;;;;;;4995813;28;20187;-83
2022/06/12 11:24:55;;;;;;;0.38;0.38;;;29.80;99.90;;;;;;4976374;28;20287;-84
2022/06/12 11:28:06;;;;;;;1.15;0.80;;;29.40;99.90;;;;;;4990548;28;20193;-82
2022/06/12 11:30:46;;;;;;;1.08;0.98;;;29.40;99.90;;;;;;4989519;28;20190;-82
2022/06/12 11:33:21;;;;;;;0.40;0.40;;;29.60;99.90;;;;;;4994133;28;20171;-83
2022/06/12 11:36:11;;;;;;;0.30;0.30;;;29.30;99.90;;;;;;4991101;28;20234;-83
2022/06/12 11:39:18;;;;;;;0.90;0.50;;;29.30;99.90;;;;;;4974667;28;20187;-82
2022/06/12 11:42:01;;;;;;;0.70;0.50;;;29.50;99.90;;;;;;4980859;28;20692;-83
2022/06/12 11:45:18;;;;;;;0.30;0.30;;;29.60;99.90;;;;;;4991906;28;20203;-82
2022/06/12 11:48:17;;;;;;;0.65;0.65;;;29.00;99.90;;;;;;4950228;29;21236;-82
2022/06/12 11:50:51;;;;;;;0.25;0.25;;;28.90;99.90;;;;;;4992724;28;20246;-82
2022/06/12 11:53:43;;;;;;;0.47;0.47;;;29.00;99.90;;;;;;4990563;28;20184;-82
2022/06/12 11:56:35;;;;;;;0.40;0.40;;;29.00;99.90;;;;;;4989148;28;20211;-82
2022/06/12 11:59:22;;;;;;;0.60;0.50;;;29.30;99.90;;;;;;4956172;28;20728;-82
2022/06/12 12:01:55;;;;;;;0.55;0.55;;;29.30;99.90;;;;;;4973227;28;20188;-82
2022/06/12 12:04:40;;;;;;;0.50;0.50;;;29.30;99.90;;;;;;4990972;28;20176;-83
2022/06/12 12:07:28;;;;;;;0.38;0.30;;;29.20;99.90;;;;;;4987903;28;20579;-83
2022/06/12 12:10:12;;;;;;;0.28;0.28;;;29.20;99.90;;;;;;4972735;28;20190;-83
2022/06/12 12:12:41;;;;;;;0.30;0.30;;;29.40;99.90;;;;;;4991433;28;20187;-83
2022/06/12 12:15:16;;;;;;;0.50;0.50;;;29.10;99.90;;;;;;4972863;28;20357;-83
2022/06/12 12:17:44;;;;;;;0.40;0.40;;;29.00;99.90;;;;;;4990109;28;20186;-84
2022/06/12 12:20:28;;;;;;;0.32;0.32;;;29.00;99.90;;;;;;4990583;28;20183;-83
2022/06/12 12:23:01;;;;;;;0.85;0.60;;;29.10;99.90;;;;;;4971892;28;21054;-83
2022/06/12 12:25:34;;;;;;;0.32;0.32;;;29.10;99.90;;;;;;4989801;28;20211;-82
2022/06/12 12:28:05;;;;;;;0.45;0.45;;;29.20;99.90;;;;;;4989234;28;20180;-82
2022/06/12 12:30:35;;;;;;;0.30;0.30;;;29.20;99.90;;;;;;4971868;28;20665;-82
2022/06/12 12:33:04;;;;;;;0.28;0.28;;;29.30;99.90;;;;;;4989694;28;20238;-83
2022/06/12 12:41:24;;;;;;;0.35;0.35;;;28.80;99.90;;;;;;4966394;28;20257;-83
2022/06/12 12:43:57;;;;;;;1.95;0.63;;;29.10;99.90;;;;;;4989292;28;20180;-83
2022/06/12 12:46:26;;;;;;;0.68;0.60;;;29.30;99.90;;;;;;4987821;28;20211;-83
2022/06/12 12:48:55;;;;;;;0.50;0.50;;;29.20;99.90;;;;;;4988048;28;20194;-82
2022/06/12 12:51:32;;;;;;;0.50;0.50;;;29.00;99.90;;;;;;4971102;28;20668;-83
2022/06/12 12:54:15;;;;;;;0.40;0.40;;;29.20;99.90;;;;;;4988066;28;20274;-83
2022/06/12 12:57:01;;;;;;;0.30;0.30;;;29.30;99.90;;;;;;4988069;28;20263;-83
2022/06/12 12:59:37;;;;;;;0.40;0.40;;;29.30;99.90;;;;;;4989969;28;20180;-83
2022/06/12 13:02:21;;;;;;;0.70;0.38;;;29.20;99.90;;;;;;4971303;28;20183;-83
2022/06/12 13:04:47;;;;;;;1.73;1.13;;;29.30;99.90;;;;;;4989108;28;20211;-83
2022/06/12 13:07:40;;;;;;;0.28;0.28;;;29.40;99.90;;;;;;4991151;28;20303;-82
2022/06/12 13:10:34;;;;;;;0.30;0.30;;;29.60;99.90;;;;;;4988644;28;20584;-84
2022/06/12 13:13:12;;;;;;;0.30;0.28;;;29.30;99.90;;;;;;4988843;28;20258;-83
2022/06/12 13:16:12;;;;;;;0.38;0.38;;;29.30;99.90;;;;;;4969211;28;20216;-83
2022/06/12 13:18:50;;;;;;;0.90;0.68;;;29.30;99.90;;;;;;4986912;28;20187;-83
2022/06/12 13:21:21;;;;;;;0.20;0.20;;;29.40;99.90;;;;;;4989725;28;20176;-83
2022/06/12 13:24:14;;;;;;;0.38;0.38;;;29.40;99.90;;;;;;4987726;28;20195;-83
2022/06/12 13:26:42;;;;;;;0.57;0.40;;;29.30;99.90;;;;;;4989011;28;20190;-83
2022/06/12 13:29:17;;;;;;;0.98;0.82;;;29.00;99.90;;;;;;4989512;28;20194;-85
2022/06/12 13:32:41;;;;;;;0.20;0.20;;;29.10;99.90;;;;;;4988898;28;20234;-83
2022/06/12 13:35:29;;;;;;;0.32;0.32;;;29.40;99.90;;;;;;4943972;28;20242;-84
2022/06/12 13:37:58;;;;;;;0.35;0.35;;;29.60;99.90;;;;;;4982451;28;20172;-83
2022/06/12 13:40:37;;;;;;;0.20;0.20;;;29.70;99.90;;;;;;4971216;28;20258;-83
2022/06/12 13:43:35;;;;;;;0.52;0.50;;;29.70;99.90;;;;;;4971201;28;20267;-84